Time;durP1;ratioP1;P1;durP2;ratioP2;P2;SDS_P1;SDS_P2;PMS_P1;PMS_P2;Temp;Humidity;BMP_temperature;BMP_pressure;BME280_temperature;BME280_humidity;BME280_pressure;Samples;Min_cycle;Max_cycle;Signal;HPM_P1;HPM_P2
2022/01/27 00:00:43;;;;;;;;;;;4.20;90.80;;;;;;5079270;28;19979;-74
2022/01/27 00:05:46;;;;;;;;;;;4.20;90.80;;;;;;5072817;28;19915;-74
2022/01/27 00:08:16;;;;;;;;;;;4.20;90.80;;;;;;5073046;28;19948;-73
2022/01/27 00:10:56;;;;;;;;;;;4.20;90.80;;;;;;5079126;28;20287;-74
2022/01/27 00:13:28;;;;;;;;;;;4.20;90.80;;;;;;5079006;28;19931;-74
2022/01/27 00:16:00;;;;;;;;;;;4.20;90.80;;;;;;5079186;28;19912;-73
2022/01/27 00:18:29;;;;;;;;;;;4.20;90.80;;;;;;5078612;28;19908;-74
2022/01/27 00:20:55;;;;;;;;;;;4.20;90.80;;;;;;5078859;28;20434;-74
2022/01/27 00:23:20;;;;;;;;;;;4.20;90.80;;;;;;5078867;28;19967;-73
2022/01/27 00:25:46;;;;;;;;;;;4.20;90.80;;;;;;5077443;28;20282;-73
2022/01/27 00:28:12;;;;;;;;;;;4.10;90.80;;;;;;5078764;28;19912;-73
2022/01/27 00:30:38;;;;;;;;;;;4.20;90.90;;;;;;5078859;28;20001;-74
2022/01/27 00:33:04;;;;;;;;;;;4.10;90.80;;;;;;5078245;28;20473;-74
2022/01/27 00:35:31;;;;;;;;;;;4.10;90.80;;;;;;5065826;28;19913;-73
2022/01/27 00:37:56;;;;;;;;;;;4.10;90.70;;;;;;5078934;28;19908;-74
2022/01/27 00:40:22;;;;;;;;;;;4.10;90.70;;;;;;5078568;28;19909;-73
2022/01/27 00:42:48;;;;;;;;;;;4.10;90.70;;;;;;5078426;28;19970;-73
2022/01/27 00:45:14;;;;;;;;;;;4.00;90.70;;;;;;5078454;28;19912;-74
2022/01/27 00:47:40;;;;;;;;;;;4.00;90.70;;;;;;5078414;28;20023;-73
2022/01/27 00:50:05;;;;;;;;;;;3.90;90.60;;;;;;5078375;28;19909;-74
2022/01/27 00:52:39;;;;;;;;;;;3.90;90.50;;;;;;5078538;28;19950;-73
2022/01/27 00:55:06;;;;;;;;;;;3.80;90.50;;;;;;5078162;28;19908;-73
2022/01/27 01:00:03;;;;;;;;;;;3.70;90.40;;;;;;5078111;28;19913;-74
2022/01/27 01:07:37;;;;;;;;;;;3.60;90.40;;;;;;5066352;28;20050;-73
2022/01/27 01:15:35;;;;;;;;;;;3.40;90.40;;;;;;5066300;28;19954;-74
2022/01/27 01:20:37;;;;;;;;;;;3.40;90.40;;;;;;5077966;28;19909;-73
2022/01/27 01:31:30;;;;;;;;;;;3.20;90.50;;;;;;5077822;28;19939;-73
2022/01/27 01:34:11;;;;;;;;;;;3.30;90.50;;;;;;5077140;28;19912;-73
2022/01/27 01:36:45;;;;;;;;;;;3.20;90.50;;;;;;5067499;28;19909;-73
2022/01/27 01:39:12;;;;;;;;;;;3.20;90.40;;;;;;5077593;28;20287;-73
2022/01/27 01:41:38;;;;;;;;;;;3.20;90.50;;;;;;5077990;28;19980;-73
2022/01/27 01:44:04;;;;;;;;;;;3.20;90.50;;;;;;5077474;28;19920;-74
2022/01/27 01:46:29;;;;;;;;;;;3.20;90.50;;;;;;5077825;28;19913;-74
2022/01/27 01:48:55;;;;;;;;;;;3.20;90.50;;;;;;5077315;28;19909;-73
2022/01/27 01:51:25;;;;;;;;;;;3.20;90.50;;;;;;5077906;28;19930;-74
2022/01/27 01:53:51;;;;;;;;;;;3.20;90.60;;;;;;5076162;28;20047;-73
2022/01/27 01:56:17;;;;;;;;;;;3.20;90.60;;;;;;5076387;28;19947;-73
2022/01/27 01:58:42;;;;;;;;;;;3.20;90.70;;;;;;5077425;28;19908;-73
2022/01/27 02:01:08;;;;;;;;;;;3.20;90.70;;;;;;5077861;28;19920;-73
2022/01/27 02:03:34;;;;;;;;;;;3.20;90.70;;;;;;5077163;28;19915;-73
2022/01/27 02:05:59;;;;;;;;;;;3.20;90.80;;;;;;5068662;28;20007;-73
2022/01/27 02:19:09;;;;;;;;;;;3.20;90.90;;;;;;5077351;28;19932;-73
2022/01/27 02:21:42;;;;;;;;;;;3.30;91.00;;;;;;5081103;28;19908;-73
2022/01/27 02:24:08;;;;;;;;;;;3.20;91.00;;;;;;5081236;28;20012;-73
2022/01/27 02:26:33;;;;;;;;;;;3.20;91.00;;;;;;5080966;28;19948;-73
2022/01/27 02:28:59;;;;;;;;;;;3.30;91.10;;;;;;5081190;28;19995;-73
2022/01/27 02:31:24;;;;;;;;;;;3.30;91.10;;;;;;5080993;28;19955;-74
2022/01/27 02:33:57;;;;;;;;;;;3.30;91.20;;;;;;5080706;28;19951;-74
2022/01/27 02:36:23;;;;;;;;;;;3.30;91.20;;;;;;5067821;28;20003;-74
2022/01/27 02:38:48;;;;;;;;;;;3.30;91.10;;;;;;5080917;28;19959;-73
2022/01/27 02:41:16;;;;;;;;;;;3.40;91.10;;;;;;5081182;28;19912;-74
2022/01/27 02:43:41;;;;;;;;;;;3.40;91.00;;;;;;5079410;28;19927;-73
2022/01/27 02:46:15;;;;;;;;;;;3.40;91.00;;;;;;5081017;28;19908;-73
2022/01/27 02:48:41;;;;;;;;;;;3.40;91.00;;;;;;5080507;28;19913;-73
2022/01/27 02:51:06;;;;;;;;;;;3.40;91.00;;;;;;5080796;28;19915;-73
2022/01/27 02:53:32;;;;;;;;;;;3.40;91.00;;;;;;5080751;28;19908;-73
2022/01/27 02:55:58;;;;;;;;;;;3.40;91.00;;;;;;5080651;28;20022;-74
2022/01/27 02:58:24;;;;;;;;;;;3.40;91.10;;;;;;5080612;28;19999;-74
2022/01/27 03:00:50;;;;;;;;;;;3.40;91.20;;;;;;5080660;28;19944;-74
2022/01/27 03:03:15;;;;;;;;;;;3.50;91.30;;;;;;5080132;28;19952;-74
2022/01/27 03:05:41;;;;;;;;;;;3.50;91.30;;;;;;5074336;28;19909;-74
2022/01/27 03:08:06;;;;;;;;;;;3.50;91.20;;;;;;5073542;28;19912;-73
2022/01/27 03:10:39;;;;;;;;;;;3.50;91.20;;;;;;5080210;28;20260;-73
2022/01/27 03:13:05;;;;;;;;;;;3.50;91.10;;;;;;5080252;28;20279;-74
2022/01/27 03:15:30;;;;;;;;;;;3.50;91.10;;;;;;5080774;28;19908;-73
2022/01/27 03:17:56;;;;;;;;;;;3.50;91.00;;;;;;5079885;28;19957;-73
2022/01/27 03:20:23;;;;;;;;;;;3.50;91.10;;;;;;5080230;28;19985;-73
2022/01/27 03:22:49;;;;;;;;;;;3.50;91.30;;;;;;5079926;28;20434;-73
2022/01/27 03:25:14;;;;;;;;;;;3.40;91.00;;;;;;5080292;28;19963;-73
2022/01/27 03:27:46;;;;;;;;;;;3.50;91.00;;;;;;5079866;28;19912;-74
2022/01/27 03:30:12;;;;;;;;;;;3.50;91.00;;;;;;5080022;28;19909;-73
2022/01/27 03:32:37;;;;;;;;;;;3.50;91.00;;;;;;5079464;28;19930;-73
2022/01/27 03:35:03;;;;;;;;;;;3.50;91.00;;;;;;5078112;28;19940;-73
2022/01/27 03:37:29;;;;;;;;;;;3.50;91.00;;;;;;5079732;28;19920;-73
2022/01/27 03:39:54;;;;;;;;;;;3.50;91.10;;;;;;5079980;28;19908;-73
2022/01/27 03:42:20;;;;;;;;;;;3.50;91.20;;;;;;5079415;28;19921;-73
2022/01/27 03:44:46;;;;;;;;;;;3.40;91.20;;;;;;5079947;28;19909;-73
2022/01/27 03:47:11;;;;;;;;;;;3.40;91.10;;;;;;5079383;28;20360;-74
2022/01/27 03:49:37;;;;;;;;;;;3.40;91.10;;;;;;5079694;28;19931;-73
2022/01/27 03:52:03;;;;;;;;;;;3.40;91.00;;;;;;5079476;28;20442;-74
2022/01/27 03:54:30;;;;;;;;;;;3.40;91.00;;;;;;5079600;28;20382;-74
2022/01/27 03:56:56;;;;;;;;;;;3.40;91.00;;;;;;5079559;28;19915;-74
2022/01/27 03:59:22;;;;;;;;;;;3.40;91.00;;;;;;5079664;28;19908;-74
2022/01/27 04:01:47;;;;;;;;;;;3.40;91.20;;;;;;5078224;28;19916;-74
2022/01/27 04:04:14;;;;;;;;;;;3.30;91.10;;;;;;5077851;28;19951;-74
2022/01/27 04:06:41;;;;;;;;;;;3.30;91.00;;;;;;5065664;28;20342;-74
2022/01/27 04:09:08;;;;;;;;;;;3.30;91.00;;;;;;5079427;28;19915;-73
2022/01/27 04:11:34;;;;;;;;;;;3.20;90.90;;;;;;5079070;28;19915;-73
2022/01/27 04:14:00;;;;;;;;;;;3.20;90.90;;;;;;5079407;28;20371;-73
2022/01/27 04:16:25;;;;;;;;;;;3.20;90.80;;;;;;5079057;28;19909;-73
2022/01/27 04:18:51;;;;;;;;;;;3.20;90.80;;;;;;5078846;28;19909;-73
2022/01/27 04:21:17;;;;;;;;;;;3.10;90.70;;;;;;5078796;28;19909;-73
2022/01/27 04:23:43;;;;;;;;;;;3.10;90.80;;;;;;5078808;28;20403;-73
2022/01/27 04:26:11;;;;;;;;;;;3.10;90.80;;;;;;5078820;28;19916;-73
2022/01/27 04:28:38;;;;;;;;;;;3.10;90.80;;;;;;5078847;28;19913;-73
2022/01/27 04:31:07;;;;;;;;;;;3.00;90.80;;;;;;5078726;28;19909;-74
2022/01/27 04:33:34;;;;;;;;;;;3.00;90.90;;;;;;5078380;28;20353;-74
2022/01/27 04:36:05;;;;;;;;;;;3.00;90.90;;;;;;5065250;28;19940;-74
2022/01/27 04:38:38;;;;;;;;;;;3.00;91.00;;;;;;5078760;28;20283;-73
2022/01/27 04:43:49;;;;;;;;;;;3.10;91.10;;;;;;5077786;28;19932;-73
2022/01/27 04:46:26;;;;;;;;;;;3.10;91.20;;;;;;5078654;28;19908;-73
2022/01/27 04:48:59;;;;;;;;;;;3.10;91.50;;;;;;5078119;28;19916;-74
2022/01/27 04:51:25;;;;;;;;;;;3.20;91.50;;;;;;5077159;28;19958;-73
2022/01/27 04:54:01;;;;;;;;;;;3.20;91.60;;;;;;5078177;28;19908;-73
2022/01/27 04:56:29;;;;;;;;;;;3.20;91.80;;;;;;5078463;28;19976;-73
2022/01/27 04:58:59;;;;;;;;;;;3.20;91.80;;;;;;5076880;28;19936;-73
2022/01/27 05:01:32;;;;;;;;;;;3.20;91.60;;;;;;5078303;28;20334;-74
2022/01/27 05:04:08;;;;;;;;;;;3.20;91.50;;;;;;5078095;28;19931;-73
2022/01/27 05:06:34;;;;;;;;;;;3.20;91.40;;;;;;5064682;28;19909;-73
2022/01/27 05:09:00;;;;;;;;;;;3.20;91.30;;;;;;5078224;28;19908;-74
2022/01/27 05:11:32;;;;;;;;;;;3.20;91.30;;;;;;5078063;28;19915;-74
2022/01/27 05:14:07;;;;;;;;;;;3.20;91.50;;;;;;5078308;28;19913;-73
2022/01/27 05:16:33;;;;;;;;;;;3.20;91.50;;;;;;5077972;28;19909;-74
2022/01/27 05:18:59;;;;;;;;;;;3.20;91.50;;;;;;5077885;28;19923;-73
2022/01/27 05:21:25;;;;;;;;;;;3.20;91.40;;;;;;5077888;28;19908;-73
2022/01/27 05:23:51;;;;;;;;;;;3.20;91.30;;;;;;5078126;28;19912;-74
2022/01/27 05:26:16;;;;;;;;;;;3.20;91.30;;;;;;5077793;28;19962;-74
2022/01/27 05:28:42;;;;;;;;;;;3.20;91.30;;;;;;5078113;28;20011;-73
2022/01/27 05:31:08;;;;;;;;;;;3.20;91.20;;;;;;5076493;28;19987;-80
2022/01/27 05:33:33;;;;;;;;;;;3.20;91.30;;;;;;5076461;28;20046;-77
2022/01/27 05:35:59;;;;;;;;;;;3.30;91.30;;;;;;5077426;28;19908;-76
2022/01/27 05:38:25;;;;;;;;;;;3.30;91.20;;;;;;5078026;28;20410;-78
2022/01/27 05:40:51;;;;;;;;;;;3.30;91.30;;;;;;5077523;28;19943;-75
2022/01/27 05:43:17;;;;;;;;;;;3.30;91.30;;;;;;5077607;28;19927;-74
2022/01/27 05:45:43;;;;;;;;;;;3.30;91.50;;;;;;5076556;28;20379;-76
2022/01/27 05:48:08;;;;;;;;;;;3.40;91.70;;;;;;5076293;28;20011;-83
2022/01/27 05:50:34;;;;;;;;;;;3.40;91.80;;;;;;5077538;28;20401;-83
2022/01/27 05:53:00;;;;;;;;;;;3.40;91.90;;;;;;5077688;28;20383;-75
2022/01/27 05:55:26;;;;;;;;;;;3.40;91.80;;;;;;5079563;28;19964;-77
2022/01/27 05:57:51;;;;;;;;;;;3.40;91.70;;;;;;5081843;28;20019;-80
2022/01/27 06:00:17;;;;;;;;;;;3.40;91.60;;;;;;5080451;28;19908;-77
2022/01/27 06:02:43;;;;;;;;;;;3.40;91.60;;;;;;5081659;28;19916;-74
2022/01/27 06:05:09;;;;;;;;;;;3.40;91.60;;;;;;5079445;28;19908;-71
2022/01/27 06:07:35;;;;;;;;;;;3.40;91.70;;;;;;5068813;28;19913;-72
2022/01/27 06:10:01;;;;;;;;;;;3.50;91.70;;;;;;5081411;28;19915;-74
2022/01/27 06:12:27;;;;;;;;;;;3.40;91.70;;;;;;5080142;28;19909;-73
2022/01/27 06:14:52;;;;;;;;;;;3.50;91.60;;;;;;5081286;28;19912;-73
2022/01/27 06:17:18;;;;;;;;;;;3.50;91.60;;;;;;5081302;28;19923;-78
2022/01/27 06:19:45;;;;;;;;;;;3.50;91.60;;;;;;5079755;28;20407;-78
2022/01/27 06:22:11;;;;;;;;;;;3.50;91.50;;;;;;5079846;28;19916;-75
2022/01/27 06:24:44;;;;;;;;;;;3.50;91.50;;;;;;5080959;28;19951;-74
2022/01/27 06:27:11;;;;;;;;;;;3.50;91.40;;;;;;5081050;28;19920;-75
2022/01/27 06:29:37;;;;;;;;;;;3.50;91.40;;;;;;5081000;28;19936;-75
2022/01/27 06:32:03;;;;;;;;;;;3.50;91.50;;;;;;5079526;28;19912;-75
2022/01/27 06:34:28;;;;;;;;;;;3.40;91.50;;;;;;5079143;28;19913;-75
2022/01/27 06:36:54;;;;;;;;;;;3.50;91.60;;;;;;5079964;28;19967;-75
2022/01/27 06:39:20;;;;;;;;;;;3.50;91.60;;;;;;5080655;28;19931;-74
2022/01/27 06:41:47;;;;;;;;;;;3.50;91.60;;;;;;5080906;28;19912;-74
2022/01/27 06:44:12;;;;;;;;;;;3.50;91.60;;;;;;5080656;28;20303;-75
2022/01/27 06:46:38;;;;;;;;;;;3.50;91.60;;;;;;5080809;28;19920;-75
2022/01/27 06:49:04;;;;;;;;;;;3.50;91.60;;;;;;5080302;28;19909;-75
2022/01/27 06:51:30;;;;;;;;;;;3.50;91.60;;;;;;5080834;28;19908;-75
2022/01/27 06:53:57;;;;;;;;;;;3.50;91.50;;;;;;5080466;28;19915;-75
2022/01/27 06:56:23;;;;;;;;;;;3.50;91.60;;;;;;5080718;28;19908;-75
2022/01/27 06:58:49;;;;;;;;;;;3.50;91.50;;;;;;5080702;28;19962;-74
2022/01/27 07:01:14;;;;;;;;;;;3.50;91.50;;;;;;5080354;28;19910;-75
2022/01/27 07:03:40;;;;;;;;;;;3.50;91.50;;;;;;5079179;28;19908;-75
2022/01/27 07:06:06;;;;;;;;;;;3.60;91.50;;;;;;5069562;28;19915;-75
2022/01/27 07:08:31;;;;;;;;;;;3.60;91.50;;;;;;5076903;28;19912;-75
2022/01/27 07:10:57;;;;;;;;;;;3.60;91.50;;;;;;5080315;28;19908;-75
2022/01/27 07:13:23;;;;;;;;;;;3.60;91.50;;;;;;5080218;28;19943;-75
2022/01/27 07:15:48;;;;;;;;;;;3.60;91.60;;;;;;5080448;28;19912;-75
2022/01/27 07:18:14;;;;;;;;;;;3.60;91.60;;;;;;5079830;28;19909;-75
2022/01/27 07:20:40;;;;;;;;;;;3.60;91.60;;;;;;5080264;28;19940;-75
2022/01/27 07:23:09;;;;;;;;;;;3.60;91.60;;;;;;5079979;28;19909;-75
2022/01/27 07:25:35;;;;;;;;;;;3.70;91.60;;;;;;5080009;28;19908;-75
2022/01/27 07:28:00;;;;;;;;;;;3.70;91.60;;;;;;5079935;28;19913;-75
2022/01/27 07:30:26;;;;;;;;;;;3.70;91.60;;;;;;5080255;28;19915;-74
2022/01/27 07:32:52;;;;;;;;;;;3.70;91.60;;;;;;5079459;28;19908;-75
2022/01/27 07:35:17;;;;;;;;;;;3.70;91.60;;;;;;5079157;28;19987;-74
2022/01/27 07:37:45;;;;;;;;;;;3.70;91.50;;;;;;5079770;28;20015;-74
2022/01/27 07:40:11;;;;;;;;;;;3.70;91.50;;;;;;5079730;28;19936;-75
2022/01/27 07:42:36;;;;;;;;;;;3.70;91.60;;;;;;5079431;28;20011;-75
2022/01/27 07:45:02;;;;;;;;;;;3.70;91.60;;;;;;5078449;28;19951;-75
2022/01/27 07:47:28;;;;;;;;;;;3.70;91.60;;;;;;5079217;28;19920;-75
2022/01/27 07:49:54;;;;;;;;;;;3.80;91.70;;;;;;5079818;28;20000;-75
2022/01/27 07:52:20;;;;;;;;;;;3.80;91.80;;;;;;5078113;28;20028;-75
2022/01/27 07:54:46;;;;;;;;;;;3.80;91.80;;;;;;5079452;28;19908;-74
2022/01/27 07:57:12;;;;;;;;;;;3.80;91.80;;;;;;5079377;28;19965;-75
2022/01/27 07:59:38;;;;;;;;;;;3.90;91.90;;;;;;5079323;28;19912;-75
2022/01/27 08:02:04;;;;;;;;;;;3.90;91.90;;;;;;5077950;28;19912;-75
2022/01/27 08:04:29;;;;;;;;;;;3.90;91.90;;;;;;5079262;28;19908;-75
2022/01/27 08:06:56;;;;;;;;;;;3.90;91.90;;;;;;5065599;28;19912;-75
2022/01/27 08:09:22;;;;;;;;;;;3.90;91.80;;;;;;5079365;28;19909;-74
2022/01/27 08:11:48;;;;;;;;;;;3.90;91.80;;;;;;5079087;28;19932;-75
2022/01/27 08:14:14;;;;;;;;;;;3.90;91.70;;;;;;5079235;28;19915;-75
2022/01/27 08:16:39;;;;;;;;;;;3.90;91.70;;;;;;5078591;28;19915;-75
2022/01/27 08:19:05;;;;;;;;;;;4.00;91.70;;;;;;5078275;28;19952;-75
2022/01/27 08:21:31;;;;;;;;;;;4.00;91.60;;;;;;5078868;28;19961;-75
2022/01/27 08:23:58;;;;;;;;;;;4.00;91.70;;;;;;5078779;28;19908;-75
2022/01/27 08:26:33;;;;;;;;;;;4.00;91.70;;;;;;5078765;28;19916;-75
2022/01/27 08:29:10;;;;;;;;;;;4.10;91.70;;;;;;5078839;28;19908;-75
2022/01/27 08:31:53;;;;;;;;;;;4.10;91.70;;;;;;5066166;28;19908;-75
2022/01/27 08:34:28;;;;;;;;;;;4.10;91.70;;;;;;5078020;28;20002;-75
2022/01/27 08:36:54;;;;;;;;;;;4.10;91.70;;;;;;5078704;28;19908;-75
2022/01/27 08:39:19;;;;;;;;;;;4.10;91.60;;;;;;5078412;28;19908;-75
2022/01/27 08:41:45;;;;;;;;;;;4.10;91.50;;;;;;5078420;28;19954;-75
2022/01/27 08:44:11;;;;;;;;;;;4.10;91.50;;;;;;5078356;28;19913;-75
2022/01/27 08:46:37;;;;;;;;;;;4.20;91.50;;;;;;5078481;28;19960;-75
2022/01/27 08:49:03;;;;;;;;;;;4.20;91.50;;;;;;5078086;28;19908;-75
2022/01/27 08:51:30;;;;;;;;;;;4.20;91.50;;;;;;5078539;28;19963;-75
2022/01/27 08:53:55;;;;;;;;;;;4.20;91.50;;;;;;5078240;28;20039;-75
2022/01/27 08:56:21;;;;;;;;;;;4.30;91.50;;;;;;5078369;28;19971;-75
2022/01/27 08:58:47;;;;;;;;;;;4.30;91.50;;;;;;5078197;28;19909;-75
2022/01/27 09:01:13;;;;;;;;;;;4.40;91.50;;;;;;5078233;28;19909;-75
2022/01/27 09:03:38;;;;;;;;;;;4.40;91.50;;;;;;5077681;28;19913;-75
2022/01/27 09:06:04;;;;;;;;;;;4.40;91.50;;;;;;5067205;28;19909;-75
2022/01/27 09:08:30;;;;;;;;;;;4.50;91.50;;;;;;5074230;28;19975;-75
2022/01/27 09:10:55;;;;;;;;;;;4.50;91.50;;;;;;5076776;28;19966;-75
2022/01/27 09:13:21;;;;;;;;;;;4.60;91.40;;;;;;5077955;28;19954;-75
2022/01/27 09:15:49;;;;;;;;;;;4.50;91.30;;;;;;5078314;28;20007;-74
2022/01/27 09:18:15;;;;;;;;;;;4.60;91.30;;;;;;5077858;28;19909;-75
2022/01/27 09:20:41;;;;;;;;;;;4.60;91.30;;;;;;5078041;28;19912;-75
2022/01/27 09:23:13;;;;;;;;;;;4.70;91.40;;;;;;5077861;28;19908;-75
2022/01/27 09:25:44;;;;;;;;;;;4.70;91.40;;;;;;5076810;28;20264;-75
2022/01/27 09:28:11;;;;;;;;;;;4.80;91.30;;;;;;5076164;28;19952;-75
2022/01/27 09:30:36;;;;;;;;;;;4.80;91.10;;;;;;5078008;28;20328;-75
2022/01/27 09:33:02;;;;;;;;;;;4.80;91.10;;;;;;5077584;28;19913;-75
2022/01/27 09:35:28;;;;;;;;;;;4.90;91.00;;;;;;5076171;28;20007;-75
2022/01/27 09:37:55;;;;;;;;;;;4.90;90.90;;;;;;5077685;28;20348;-75
2022/01/27 09:40:21;;;;;;;;;;;4.90;91.00;;;;;;5077703;28;19932;-75
2022/01/27 09:42:50;;;;;;;;;;;4.90;91.10;;;;;;5077456;28;19921;-75
2022/01/27 09:45:16;;;;;;;;;;;5.00;91.10;;;;;;5077706;28;19908;-75
2022/01/27 09:47:43;;;;;;;;;;;5.00;91.00;;;;;;5077177;28;20034;-76
2022/01/27 09:50:46;;;;;;;;;;;5.10;90.90;;;;;;5077599;28;19916;-75
2022/01/27 09:52:55;;;;;;;;;;;5.10;91.00;;;;;;5077430;28;20256;-75
2022/01/27 09:55:21;;;;;;;;;;;5.20;91.10;;;;;;5077438;28;19970;-76
2022/01/27 09:57:47;;;;;;;;;;;5.30;90.80;;;;;;5077670;28;19932;-75
2022/01/27 10:00:13;;;;;;;;;;;5.40;90.60;;;;;;5077551;28;19909;-75
2022/01/27 10:02:39;;;;;;;;;;;5.50;90.30;;;;;;5077315;28;19912;-75
2022/01/27 10:05:05;;;;;;;;;;;5.50;90.20;;;;;;5075853;28;19983;-75
2022/01/27 10:07:41;;;;;;;;;;;5.50;90.20;;;;;;5065887;28;19913;-75
2022/01/27 10:10:11;;;;;;;;;;;5.50;90.30;;;;;;5077385;28;19953;-75
2022/01/27 10:12:45;;;;;;;;;;;5.60;90.30;;;;;;5077587;28;20290;-75
2022/01/27 10:15:21;;;;;;;;;;;5.60;90.50;;;;;;5077420;28;20391;-76
2022/01/27 10:18:02;;;;;;;;;;;5.70;90.40;;;;;;5077329;28;19954;-75
2022/01/27 10:20:28;;;;;;;;;;;5.70;90.40;;;;;;5070024;28;20005;-76
2022/01/27 10:23:12;;;;;;;;;;;5.80;90.60;;;;;;5077311;28;19912;-75
2022/01/27 10:25:49;;;;;;;;;;;5.90;90.50;;;;;;5077367;28;19916;-75
2022/01/27 10:28:35;;;;;;;;;;;5.90;90.50;;;;;;5077106;28;19913;-75
2022/01/27 10:31:02;;;;;;;;;;;6.00;90.50;;;;;;5077435;28;19930;-75
2022/01/27 10:33:40;;;;;;;;;;;6.10;90.50;;;;;;5076992;28;20421;-76
2022/01/27 10:36:15;;;;;;;;;;;6.20;90.60;;;;;;5076415;28;19916;-75
2022/01/27 10:38:41;;;;;;;;;;;6.20;90.40;;;;;;5077216;28;19962;-75
2022/01/27 10:41:07;;;;;;;;;;;6.30;90.30;;;;;;5077389;28;19908;-75
2022/01/27 10:43:34;;;;;;;;;;;6.40;90.30;;;;;;5080702;28;19974;-75
2022/01/27 10:46:08;;;;;;;;;;;6.40;90.30;;;;;;5080743;28;19958;-75
2022/01/27 10:48:39;;;;;;;;;;;6.50;90.20;;;;;;5080560;28;19912;-75
2022/01/27 10:51:16;;;;;;;;;;;6.60;90.30;;;;;;5068013;28;19954;-75
2022/01/27 10:53:54;;;;;;;;;;;6.60;90.10;;;;;;5080655;28;19908;-75
2022/01/27 10:56:23;;;;;;;;;;;6.70;90.00;;;;;;5079398;28;19908;-75
2022/01/27 10:58:49;;;;;;;;;;;6.80;89.90;;;;;;5080555;28;19913;-75
2022/01/27 11:01:21;;;;;;;;;;;6.90;89.60;;;;;;5080652;28;19909;-76
2022/01/27 11:03:51;;;;;;;;;;;7.00;89.60;;;;;;5080152;28;19968;-75
2022/01/27 11:06:16;;;;;;;;;;;7.10;89.90;;;;;;5069219;28;19912;-75
2022/01/27 11:08:42;;;;;;;;;;;7.10;89.80;;;;;;5078247;28;19912;-76
2022/01/27 11:11:08;;;;;;;;;;;7.30;88.90;;;;;;5079103;28;20492;-75
2022/01/27 11:13:35;;;;;;;;;;;7.30;89.00;;;;;;5080229;28;20038;-75
2022/01/27 11:16:03;;;;;;;;;;;7.40;88.40;;;;;;5079403;28;19908;-75
2022/01/27 11:18:29;;;;;;;;;;;7.40;88.80;;;;;;5078549;28;19951;-75
2022/01/27 11:21:08;;;;;;;;;;;7.50;88.80;;;;;;5080225;28;20370;-75
2022/01/27 11:23:49;;;;;;;;;;;7.70;88.30;;;;;;5067885;28;19908;-76
2022/01/27 11:26:19;;;;;;;;;;;8.10;88.40;;;;;;5080094;28;20343;-75
2022/01/27 11:28:47;;;;;;;;;;;8.50;87.10;;;;;;5080347;28;19912;-75
2022/01/27 11:31:18;;;;;;;;;;;8.70;86.90;;;;;;5079972;28;20359;-76
2022/01/27 11:33:45;;;;;;;;;;;8.90;86.40;;;;;;5079574;28;19915;-76
2022/01/27 11:36:12;;;;;;;;;;;9.30;85.90;;;;;;5079142;28;19916;-76
2022/01/27 11:38:39;;;;;;;;;;;9.60;85.10;;;;;;5079918;28;19908;-76
2022/01/27 11:41:05;;;;;;;;;;;10.00;83.00;;;;;;5079636;28;19938;-76
2022/01/27 11:43:33;;;;;;;;;;;10.30;81.10;;;;;;5079646;28;20341;-76
2022/01/27 11:46:16;;;;;;;;;;;10.60;80.10;;;;;;5079679;28;19913;-76
2022/01/27 11:48:42;;;;;;;;;;;10.80;77.50;;;;;;5079470;28;20363;-76
2022/01/27 11:51:13;;;;;;;;;;;10.80;78.60;;;;;;5079775;28;19913;-76
2022/01/27 11:53:42;;;;;;;;;;;10.70;80.60;;;;;;5079530;28;20007;-76
2022/01/27 11:56:31;;;;;;;;;;;10.90;78.00;;;;;;5079780;28;19962;-76
2022/01/27 11:58:59;;;;;;;;;;;11.00;75.40;;;;;;5061397;28;20354;-75
2022/01/27 12:01:25;;;;;;;;;;;10.90;75.10;;;;;;5079425;28;19966;-76
2022/01/27 12:04:09;;;;;;;;;;;10.80;75.10;;;;;;5078996;28;20001;-76
2022/01/27 12:06:36;;;;;;;;;;;10.80;75.70;;;;;;5065721;28;19909;-76
2022/01/27 12:09:17;;;;;;;;;;;10.70;75.40;;;;;;5079243;28;19908;-76
2022/01/27 12:11:57;;;;;;;;;;;10.60;75.20;;;;;;5079192;28;19920;-75
2022/01/27 12:14:29;;;;;;;;;;;10.60;75.60;;;;;;5079181;28;20482;-76
2022/01/27 12:17:07;;;;;;;;;;;10.60;75.80;;;;;;5078733;28;20345;-76
2022/01/27 12:19:45;;;;;;;;;;;10.50;74.50;;;;;;5078916;28;20271;-76
2022/01/27 12:22:11;;;;;;;;;;;10.50;74.70;;;;;;5078998;28;19908;-76
2022/01/27 12:24:49;;;;;;;;;;;10.60;75.50;;;;;;5078881;28;19908;-76
2022/01/27 12:27:18;;;;;;;;;;;10.70;74.30;;;;;;5079040;28;19912;-76
2022/01/27 12:29:54;;;;;;;;;;;10.90;73.80;;;;;;5078704;28;20283;-76
2022/01/27 12:32:21;;;;;;;;;;;10.90;74.90;;;;;;5078277;28;19908;-76
2022/01/27 12:34:48;;;;;;;;;;;10.90;75.80;;;;;;5071841;28;19972;-76
2022/01/27 12:37:14;;;;;;;;;;;11.00;74.50;;;;;;5071691;28;19991;-76
2022/01/27 12:39:41;;;;;;;;;;;10.90;74.10;;;;;;5078969;28;19915;-76
2022/01/27 12:42:09;;;;;;;;;;;10.90;74.60;;;;;;5078386;28;19923;-76
2022/01/27 12:44:35;;;;;;;;;;;10.90;75.10;;;;;;5078826;28;19936;-76
2022/01/27 12:47:01;;;;;;;;;;;10.80;75.70;;;;;;5078073;28;19967;-76
2022/01/27 12:49:41;;;;;;;;;;;10.80;75.70;;;;;;5078667;28;19962;-76
2022/01/27 12:52:11;;;;;;;;;;;10.70;75.40;;;;;;5077400;28;20232;-76
2022/01/27 12:54:37;;;;;;;;;;;10.60;75.70;;;;;;5078463;28;19930;-76
2022/01/27 12:57:04;;;;;;;;;;;10.60;75.60;;;;;;5078177;28;19909;-76
2022/01/27 12:59:39;;;;;;;;;;;10.60;76.80;;;;;;5078529;28;19908;-76
2022/01/27 13:02:06;;;;;;;;;;;10.50;75.90;;;;;;5077795;28;19912;-76
2022/01/27 13:04:33;;;;;;;;;;;10.60;76.40;;;;;;5077823;28;19951;-76
2022/01/27 13:06:59;;;;;;;;;;;10.60;75.40;;;;;;5064358;28;19916;-76
2022/01/27 13:09:26;;;;;;;;;;;10.60;77.30;;;;;;5078048;28;19909;-76
2022/01/27 13:11:54;;;;;;;;;;;10.60;77.00;;;;;;5078050;28;19915;-76
2022/01/27 13:14:20;;;;;;;;;;;10.60;76.10;;;;;;5078115;28;19958;-76
2022/01/27 13:16:51;;;;;;;;;;;10.50;76.90;;;;;;5077788;28;19952;-76
2022/01/27 13:19:28;;;;;;;;;;;10.50;76.90;;;;;;5078189;28;19909;-76
2022/01/27 13:22:03;;;;;;;;;;;10.40;77.00;;;;;;5064952;28;20276;-76
2022/01/27 13:24:32;;;;;;;;;;;10.40;78.30;;;;;;5077812;28;19978;-76
2022/01/27 13:27:04;;;;;;;;;;;10.40;78.10;;;;;;5078017;28;19919;-76
2022/01/27 13:29:37;;;;;;;;;;;10.60;77.90;;;;;;5077768;28;19916;-76
2022/01/27 13:32:04;;;;;;;;;;;10.80;78.50;;;;;;5077564;28;19959;-76
2022/01/27 13:34:30;;;;;;;;;;;11.10;78.50;;;;;;5077375;28;19909;-76
2022/01/27 13:36:56;;;;;;;;;;;11.40;77.40;;;;;;5077899;28;20917;-76
2022/01/27 13:41:16;;;;;;;;;;;11.60;75.70;;;;;;5077674;28;19909;-76
2022/01/27 13:42:23;;;;;;;;;;;11.70;75.00;;;;;;5077317;28;19933;-76
2022/01/27 13:44:53;;;;;;;;;;;11.70;76.00;;;;;;5076538;28;19917;-76
2022/01/27 13:47:27;;;;;;;;;;;11.70;75.40;;;;;;5077359;28;19920;-76
2022/01/27 13:49:54;;;;;;;;;;;11.60;74.90;;;;;;5078012;28;19913;-76
2022/01/27 13:52:24;;;;;;;;;;;11.50;75.60;;;;;;5077590;28;20018;-76
2022/01/27 13:54:50;;;;;;;;;;;11.40;75.30;;;;;;5077553;28;19909;-76
2022/01/27 13:57:17;;;;;;;;;;;11.30;75.20;;;;;;5077846;28;19916;-76
2022/01/27 13:59:53;;;;;;;;;;;11.20;75.80;;;;;;5077565;28;19931;-76
2022/01/27 14:02:24;;;;;;;;;;;11.10;75.80;;;;;;5064034;28;20447;-77
2022/01/27 14:04:50;;;;;;;;;;;11.10;76.90;;;;;;5077599;28;19932;-76
2022/01/27 14:07:30;;;;;;;;;;;11.00;76.20;;;;;;5062833;28;19935;-77
2022/01/27 14:09:56;;;;;;;;;;;11.00;76.00;;;;;;5077358;28;19909;-77
2022/01/27 14:12:30;;;;;;;;;;;10.90;76.40;;;;;;5077677;28;19957;-76
2022/01/27 14:14:57;;;;;;;;;;;10.90;76.70;;;;;;5077387;28;19950;-77
2022/01/27 14:17:27;;;;;;;;;;;10.80;76.80;;;;;;5079883;28;20000;-77
2022/01/27 14:19:53;;;;;;;;;;;10.80;77.90;;;;;;5079906;28;19970;-76
2022/01/27 14:22:20;;;;;;;;;;;10.80;78.40;;;;;;5079987;28;19912;-77
2022/01/27 14:25:00;;;;;;;;;;;10.80;78.00;;;;;;5081067;28;19909;-77
2022/01/27 14:27:35;;;;;;;;;;;10.80;77.70;;;;;;5081235;28;20290;-76
2022/01/27 14:30:01;;;;;;;;;;;10.80;77.90;;;;;;5068615;28;19916;-76
2022/01/27 14:32:26;;;;;;;;;;;10.80;77.70;;;;;;5080768;28;19909;-77
2022/01/27 14:34:52;;;;;;;;;;;10.70;78.00;;;;;;5073336;28;19958;-76
2022/01/27 14:37:18;;;;;;;;;;;10.70;77.20;;;;;;5073997;28;19908;-77
2022/01/27 14:39:43;;;;;;;;;;;10.70;77.50;;;;;;5081064;28;19915;-76
2022/01/27 14:42:11;;;;;;;;;;;10.60;77.20;;;;;;5080669;28;19916;-76
2022/01/27 14:44:37;;;;;;;;;;;10.50;77.50;;;;;;5081149;28;20007;-76
2022/01/27 14:47:05;;;;;;;;;;;10.40;77.80;;;;;;5079339;28;19966;-76
2022/01/27 14:49:31;;;;;;;;;;;10.40;77.70;;;;;;5080093;28;19909;-76
2022/01/27 14:51:57;;;;;;;;;;;10.30;78.90;;;;;;5080847;28;19988;-76
2022/01/27 14:54:22;;;;;;;;;;;10.20;78.70;;;;;;5080801;28;19909;-77
2022/01/27 14:56:51;;;;;;;;;;;10.20;78.90;;;;;;5079511;28;19908;-77
2022/01/27 14:59:17;;;;;;;;;;;10.10;79.30;;;;;;5080851;28;19958;-77
2022/01/27 15:01:43;;;;;;;;;;;10.00;79.30;;;;;;5080278;28;19908;-76
2022/01/27 15:04:08;;;;;;;;;;;10.00;79.40;;;;;;5080564;28;19919;-76
2022/01/27 15:06:34;;;;;;;;;;;9.90;79.70;;;;;;5066993;28;19909;-77
2022/01/27 15:09:00;;;;;;;;;;;9.90;79.90;;;;;;5080451;28;19913;-76
2022/01/27 15:11:26;;;;;;;;;;;9.80;80.40;;;;;;5080325;28;19915;-76